Harstena, Sweden

8:27 AM CEST on October 01, 2014 (GMT +0200)
Skavsta | Change Station
CLOSE
Current Station
Airport
Location: Nykoping Skavsta,
Elevation: 141 ft
Nearby Weather Stations

Elev 141 ft 58.79 °N, 16.91 °E | Updated 7 minutes ago

Scattered Clouds
Scattered Clouds
43 °F
Feels Like 43 °F
N
2
Wind Variable Wind from ENE

Today
High -- | Low -- °F
--% Chance of Precip.
Yesterday
High -- | Low -- °F
Precip. -- in
6:55 AM 6:26 PM
Waxing Crescent, 44% visible
Pressure 30.45 in
Visibility 6.2 miles
Clouds Scattered Clouds 3300 ft
Dew Point 43 °F
Humidity 100%
Rainfall 0.00 in
Snow Depth Not available.
UV 0 out of 12
Pollen Not available.
Air Quality Not available.
Flu Activity Not available.
METAR ESKN 010620Z 07002KT 9999 SCT033 06/06 Q1031

More Conditions Fewer Conditions

Pressure 30.45 in
Visibility 6.2 miles
Clouds Scattered Clouds 3300 ft
Dew Point 43 °F
Humidity 100%
Rainfall 0.00 in
Snow Depth Not available.
UV 0 out of 12
Pollen Not available.
Air Quality Not available.
Flu Activity Not available.
METAR ESKN 010620Z 07002KT 9999 SCT033 06/06 Q1031

More Conditions Fewer Conditions

10-Day Weather Forecast

Almanac

Astronomy

Oct. 01, 2014 Rise Set
Actual Time 6:55 AM CEST 6:26 PM CEST
Civil Twilight 6:16 AM CEST 7:05 PM CEST
Nautical Twilight 5:30 AM CEST 7:51 PM CEST
Astronomical Twilight 4:41 AM CEST 8:39 PM CEST
Moon 2:40 PM CEST 10:41 PM CEST
Length of Visible Light 12h 49m
Length of Day
11h 30m
Tomorrow will be 5m 2s shorter.
Waxing Crescent, 44% of the Moon is Illuminated
Today
Waxing Crescent
Oct 1
First Quarter
Oct 8
Full
Oct 15
Last Quarter
Oct 23
New

Yesterday's Extremes

Country Highs Country Lows

Community

WunderPhotos

Upload Photos

1,757,886 photos uploaded!

Nearby

Snow Depth

Not available.

Earthquake Activity

City Distance Mag. Time & Date
No recent earthquake activity has been reported nearby.
Minimum magnitude displayed is 2.5.

Coastal Water Temperatures

Place Temperature
No Stations Reporting

Nearby Weather Stations